createdAt,value
2019-03-16T00:01:21.831Z,95.07
2019-03-16T00:03:50.279Z,95.29
2019-03-16T00:06:18.712Z,94.78
2019-03-16T00:08:47.197Z,94.72
2019-03-16T00:11:15.649Z,94.90
2019-03-16T00:13:44.104Z,95.11
2019-03-16T00:21:25.716Z,95.04
2019-03-16T00:23:54.165Z,95.05
2019-03-16T00:26:22.669Z,95.03
2019-03-16T00:28:51.117Z,95.13
2019-03-16T00:31:19.568Z,94.91
2019-03-16T00:33:48.060Z,94.60
2019-03-16T00:36:35.755Z,94.55
2019-03-16T00:39:23.554Z,93.98
2019-03-16T00:41:52.011Z,94.25
2019-03-16T00:44:20.462Z,94.36
2019-03-16T00:46:48.943Z,94.28
2019-03-16T00:49:17.385Z,93.81
2019-03-16T00:51:45.832Z,93.42
2019-03-16T00:56:48.603Z,92.62
2019-03-16T01:01:51.369Z,92.36
2019-03-16T01:04:19.813Z,92.03
2019-03-16T01:06:48.303Z,91.92
2019-03-16T01:09:16.754Z,92.09
2019-03-16T01:11:45.205Z,91.98
2019-03-16T01:16:47.322Z,92.83
2019-03-16T01:19:35.130Z,93.50
2019-03-16T01:22:03.577Z,92.93
2019-03-16T01:24:51.391Z,92.64
2019-03-16T01:27:19.778Z,92.57
2019-03-16T01:29:48.224Z,92.68
2019-03-16T01:37:26.334Z,92.09
2019-03-16T01:39:54.786Z,91.82
2019-03-16T01:44:56.886Z,91.69
2019-03-16T01:47:44.560Z,91.26
2019-03-16T01:50:52.920Z,90.94
2019-03-16T01:53:21.402Z,91.19
2019-03-16T01:55:49.855Z,91.09
2019-03-16T01:58:18.304Z,90.90
2019-03-16T02:00:46.789Z,91.05
2019-03-16T02:03:15.240Z,91.58
2019-03-16T02:05:43.702Z,91.61
2019-03-16T02:11:05.109Z,91.86
2019-03-16T02:13:33.598Z,92.05
2019-03-16T02:16:10.848Z,92.77
2019-03-16T02:18:32.227Z,92.87
2019-03-16T02:21:40.672Z,92.91
2019-03-16T02:24:09.133Z,92.81
2019-03-16T02:29:50.057Z,92.10
2019-03-16T02:32:18.596Z,92.11
2019-03-16T02:34:47.010Z,92.33
2019-03-16T02:37:15.465Z,92.61
2019-03-16T02:39:44.021Z,92.68
2019-03-16T02:42:12.477Z,92.36
2019-03-16T02:45:00.463Z,92.38
2019-03-16T02:47:30.346Z,92.22
2019-03-16T02:49:58.823Z,92.02
2019-03-16T02:52:27.313Z,92.23
2019-03-16T02:54:55.763Z,91.94
2019-03-16T02:57:24.288Z,91.76
2019-03-16T03:02:26.671Z,91.75
2019-03-16T03:04:56.879Z,90.99
2019-03-16T03:07:25.323Z,90.94
2019-03-16T03:09:53.789Z,90.91
2019-03-16T03:12:22.455Z,90.89
2019-03-16T03:15:10.204Z,90.94
2019-03-16T03:17:58.061Z,90.85
2019-03-16T03:20:26.504Z,90.42
2019-03-16T03:22:54.959Z,90.39
2019-03-16T03:25:23.448Z,90.21
2019-03-16T03:27:51.896Z,90.13
2019-03-16T03:30:20.355Z,90.11
2019-03-16T03:32:48.873Z,90.16
2019-03-16T03:35:17.317Z,90.05
2019-03-16T03:38:05.055Z,89.47
2019-03-16T03:40:33.503Z,89.93
2019-03-16T03:43:01.950Z,90.17
2019-03-16T03:45:49.803Z,89.79
2019-03-16T03:48:19.893Z,89.88
2019-03-16T03:50:48.341Z,89.26
2019-03-16T03:53:16.837Z,88.94
2019-03-16T03:56:04.604Z,89.44
2019-03-16T03:58:52.328Z,89.01
2019-03-16T04:01:39.971Z,89.52
2019-03-16T04:04:27.710Z,88.26
2019-03-16T04:07:19.783Z,87.71
2019-03-16T04:09:45.723Z,87.16
2019-03-16T04:12:14.164Z,86.81
2019-03-16T04:15:02.004Z,87.04
2019-03-16T04:17:30.452Z,86.58
2019-03-16T04:20:18.514Z,86.24
2019-03-16T04:22:46.954Z,86.49
2019-03-16T04:25:15.475Z,86.40
2019-03-16T04:27:43.967Z,86.35
2019-03-16T04:30:52.325Z,86.13
2019-03-16T04:33:20.818Z,85.91
2019-03-16T04:35:49.276Z,86.00
2019-03-16T04:38:17.717Z,86.41
2019-03-16T04:41:05.395Z,86.16
2019-03-16T04:43:33.862Z,85.35
2019-03-16T04:46:21.596Z,85.76
2019-03-16T04:48:50.042Z,86.36
2019-03-16T04:51:18.489Z,86.14
2019-03-16T04:53:46.974Z,85.93
2019-03-16T04:56:15.427Z,86.61
2019-03-16T04:58:43.877Z,85.67
2019-03-16T05:01:12.366Z,86.02
2019-03-16T05:03:40.813Z,85.89
2019-03-16T05:06:09.261Z,85.45
2019-03-16T05:08:37.792Z,85.96
2019-03-16T05:11:06.314Z,85.63
2019-03-16T05:13:34.763Z,85.33
2019-03-16T05:16:22.429Z,85.45
2019-03-16T05:21:38.347Z,85.79
2019-03-16T05:24:06.793Z,85.99
2019-03-16T05:26:35.241Z,85.70
2019-03-16T05:29:03.797Z,86.15
2019-03-16T05:31:32.244Z,85.21
2019-03-16T05:34:00.698Z,85.96
2019-03-16T05:39:22.317Z,85.94
2019-03-16T05:44:43.841Z,86.14
2019-03-16T05:49:46.284Z,86.55
2019-03-16T05:52:14.768Z,86.41
2019-03-16T05:54:43.212Z,86.69
2019-03-16T05:57:11.677Z,86.39
2019-03-16T05:59:40.158Z,86.88
2019-03-16T06:02:08.603Z,87.17
2019-03-16T06:04:37.054Z,87.12
2019-03-16T06:07:05.541Z,87.28
2019-03-16T06:09:33.990Z,87.27
2019-03-16T06:12:02.438Z,87.73
2019-03-16T06:14:30.961Z,87.74
2019-03-16T06:16:59.412Z,87.62
2019-03-16T06:19:27.864Z,88.19
2019-03-16T06:24:30.062Z,89.88
2019-03-16T06:26:58.510Z,90.93
2019-03-16T06:29:27.014Z,90.58
2019-03-16T06:31:55.436Z,91.03
2019-03-16T06:34:43.137Z,92.06
2019-03-16T06:37:11.588Z,93.28
2019-03-16T06:39:40.033Z,93.93
2019-03-16T06:42:08.532Z,93.53
2019-03-16T06:44:36.981Z,94.11
2019-03-16T06:47:25.062Z,95.74
2019-03-16T06:50:12.730Z,96.54
2019-03-16T06:52:41.257Z,96.32
2019-03-16T06:55:49.623Z,95.70
2019-03-16T06:58:18.111Z,95.80
2019-03-16T07:00:46.562Z,95.95
2019-03-16T07:03:15.009Z,95.29
2019-03-16T07:05:43.516Z,96.25
2019-03-16T07:08:11.968Z,96.27
2019-03-16T07:10:40.429Z,96.71
2019-03-16T07:13:08.942Z,95.81
2019-03-16T07:18:24.859Z,94.22
2019-03-16T07:20:53.305Z,92.79
2019-03-16T07:23:21.797Z,91.80
2019-03-16T07:28:26.342Z,92.68
2019-03-16T07:36:04.328Z,91.11
2019-03-16T07:38:32.781Z,91.14
2019-03-16T07:43:35.213Z,89.48
2019-03-16T07:46:03.707Z,89.36
2019-03-16T07:48:32.149Z,89.60
2019-03-16T07:51:00.628Z,89.31
2019-03-16T07:53:29.112Z,89.40
2019-03-16T07:55:57.578Z,89.27
2019-03-16T07:58:26.033Z,88.92
2019-03-16T08:00:54.543Z,88.82
2019-03-16T08:03:22.992Z,88.60
2019-03-16T08:05:51.442Z,87.66
2019-03-16T08:10:53.856Z,87.18
2019-03-16T08:13:22.305Z,86.92
2019-03-16T08:15:50.790Z,87.48
2019-03-16T08:18:19.237Z,87.02
2019-03-16T08:21:06.863Z,86.69
2019-03-16T08:23:35.307Z,86.18
2019-03-16T08:26:22.978Z,85.99
2019-03-16T08:28:51.431Z,86.35
2019-03-16T08:31:19.875Z,86.04
2019-03-16T08:36:22.584Z,84.67
2019-03-16T08:38:51.069Z,84.08
2019-03-16T08:41:19.521Z,84.09
2019-03-16T08:43:47.971Z,83.97
2019-03-16T08:49:09.552Z,83.62
2019-03-16T08:51:38.042Z,83.06
2019-03-16T08:54:06.507Z,83.40
2019-03-16T08:56:54.171Z,83.12
2019-03-16T08:59:24.402Z,82.66
2019-03-16T09:02:12.159Z,82.84
2019-03-16T09:04:40.610Z,82.15
2019-03-16T09:07:09.063Z,81.99
2019-03-16T09:12:11.716Z,81.82
2019-03-16T09:14:40.194Z,81.69
2019-03-16T09:17:09.242Z,80.92
2019-03-16T09:19:38.885Z,81.27
2019-03-16T09:25:17.809Z,80.81
2019-03-16T09:27:46.264Z,81.26
2019-03-16T09:33:46.411Z,81.13
2019-03-16T09:36:14.874Z,81.07
2019-03-16T09:44:26.816Z,81.69
2019-03-16T09:49:47.443Z,81.63
2019-03-16T09:52:15.872Z,81.13
2019-03-16T09:54:44.389Z,80.44
2019-03-16T09:59:47.126Z,80.80
2019-03-16T10:02:15.650Z,81.19
2019-03-16T10:04:44.141Z,80.46
2019-03-16T10:07:12.593Z,80.85
2019-03-16T10:09:41.044Z,80.90
2019-03-16T10:14:43.851Z,80.01
2019-03-16T10:17:12.350Z,79.35
2019-03-16T10:19:40.811Z,78.73
2019-03-16T10:22:09.266Z,78.42
2019-03-16T10:27:11.572Z,77.11
2019-03-16T10:29:40.022Z,76.65
2019-03-16T10:32:08.527Z,76.26
2019-03-16T10:34:36.973Z,75.86
2019-03-16T10:37:05.492Z,74.85
2019-03-16T10:39:33.974Z,74.48
2019-03-16T10:42:02.416Z,74.96
2019-03-16T10:44:30.864Z,74.56
2019-03-16T10:49:33.046Z,75.29
2019-03-16T10:52:01.495Z,75.81
2019-03-16T10:54:29.977Z,75.19
2019-03-16T10:56:58.445Z,73.20
2019-03-16T10:59:26.904Z,73.51
2019-03-16T11:01:55.390Z,73.98
2019-03-16T11:04:43.166Z,74.36
2019-03-16T11:07:11.651Z,74.66
2019-03-16T11:09:59.316Z,73.49
2019-03-16T11:12:27.798Z,73.23
2019-03-16T11:14:56.248Z,72.41
2019-03-16T11:17:24.711Z,71.95
2019-03-16T11:22:46.494Z,71.45
2019-03-16T11:25:34.242Z,72.23
2019-03-16T11:28:02.696Z,73.43
2019-03-16T11:30:31.144Z,72.60
2019-03-16T11:35:52.766Z,72.28
2019-03-16T11:41:14.227Z,72.04
2019-03-16T11:46:17.142Z,71.39
2019-03-16T11:51:20.024Z,72.45
2019-03-16T11:53:48.510Z,72.48
2019-03-16T11:56:18.216Z,73.05
2019-03-16T11:58:47.132Z,72.07
2019-03-16T12:01:15.617Z,72.97
2019-03-16T12:03:44.070Z,73.67
2019-03-16T12:09:00.008Z,75.76
2019-03-16T12:11:28.456Z,76.80
2019-03-16T12:13:56.909Z,78.53
2019-03-16T12:16:25.390Z,77.40
2019-03-16T12:18:53.854Z,76.38
2019-03-16T12:21:22.297Z,75.98
2019-03-16T12:23:50.804Z,73.51
2019-03-16T12:26:20.302Z,73.74
2019-03-16T12:28:49.494Z,73.44
2019-03-16T12:31:18.022Z,74.21
2019-03-16T12:33:46.469Z,74.86
2019-03-16T12:36:14.917Z,74.62
2019-03-16T12:38:43.397Z,75.43
2019-03-16T12:41:11.853Z,75.35
2019-03-16T12:43:59.603Z,75.42
2019-03-16T12:46:28.055Z,74.37
2019-03-16T12:48:56.509Z,73.87
2019-03-16T12:51:25.011Z,74.11
2019-03-16T12:53:53.461Z,73.87
2019-03-16T12:56:21.909Z,74.25
2019-03-16T12:58:50.390Z,73.91
2019-03-16T13:01:18.842Z,74.26
2019-03-16T13:03:50.141Z,73.68
2019-03-16T13:06:19.090Z,71.85
2019-03-16T13:08:47.725Z,72.15
2019-03-16T13:11:35.406Z,72.29
2019-03-16T13:17:11.951Z,72.01
2019-03-16T13:19:59.649Z,73.23
2019-03-16T13:22:28.165Z,72.67
2019-03-16T13:25:15.803Z,72.77
2019-03-16T13:27:44.298Z,72.52
2019-03-16T13:30:32.085Z,72.09
2019-03-16T13:33:00.575Z,72.43
2019-03-16T13:35:29.022Z,71.99
2019-03-16T13:37:57.471Z,71.79
2019-03-16T13:40:25.991Z,71.34
2019-03-16T13:42:54.430Z,71.31
2019-03-16T13:45:22.878Z,71.67
2019-03-16T13:47:52.017Z,71.08
2019-03-16T13:51:01.484Z,70.66
2019-03-16T13:56:22.787Z,71.88
2019-03-16T13:58:53.026Z,71.37
2019-03-16T14:01:21.472Z,71.12
2019-03-16T14:03:56.898Z,72.28
2019-03-16T14:08:59.002Z,72.39
2019-03-16T14:11:27.451Z,72.19
2019-03-16T14:13:55.999Z,72.21
2019-03-16T14:16:24.441Z,72.77
2019-03-16T14:19:13.931Z,72.84
2019-03-16T14:22:03.354Z,72.64
2019-03-16T14:24:31.844Z,72.61
2019-03-16T14:27:02.015Z,71.77
2019-03-16T14:29:30.473Z,72.11
2019-03-16T14:31:58.952Z,72.68
2019-03-16T14:34:27.404Z,71.33
2019-03-16T14:36:57.383Z,71.95
2019-03-16T14:42:00.260Z,71.74
2019-03-16T14:47:02.404Z,70.93
2019-03-16T14:49:30.876Z,71.41
2019-03-16T14:54:33.766Z,71.23
2019-03-16T14:57:02.279Z,71.19
2019-03-16T14:59:30.717Z,71.80
2019-03-16T15:01:59.165Z,72.33
2019-03-16T15:04:46.958Z,72.01
2019-03-16T15:07:15.406Z,71.81
2019-03-16T15:09:43.853Z,72.07
2019-03-16T15:12:12.336Z,71.90
2019-03-16T15:15:20.746Z,72.68
2019-03-16T15:17:49.183Z,72.60
2019-03-16T15:20:36.951Z,72.70
2019-03-16T15:23:05.514Z,72.60
2019-03-16T15:25:33.964Z,72.48
2019-03-16T15:28:21.692Z,73.30
2019-03-16T15:30:51.234Z,72.83
2019-03-16T15:36:32.534Z,71.73
2019-03-16T15:39:01.020Z,72.10
2019-03-16T15:41:29.465Z,72.76
2019-03-16T15:43:57.922Z,72.81
2019-03-16T15:46:26.424Z,72.00
2019-03-16T15:48:54.877Z,71.02
2019-03-16T15:51:24.178Z,70.86
2019-03-16T15:56:27.948Z,69.60
2019-03-16T15:58:57.688Z,68.87
2019-03-16T16:01:26.137Z,68.82
2019-03-16T16:03:54.588Z,69.30
2019-03-16T16:08:56.754Z,69.05
2019-03-16T16:11:25.205Z,68.88
2019-03-16T16:16:27.983Z,69.08
2019-03-16T16:21:30.143Z,68.91
2019-03-16T16:23:58.589Z,69.45
2019-03-16T16:26:27.093Z,69.37
2019-03-16T16:28:55.545Z,69.44
2019-03-16T16:31:24.002Z,69.53
2019-03-16T16:36:26.678Z,68.91
2019-03-16T16:38:55.130Z,69.93
2019-03-16T16:41:25.646Z,69.72
2019-03-16T16:46:47.513Z,69.76
2019-03-16T16:49:15.994Z,69.89
2019-03-16T16:51:44.442Z,70.29
2019-03-16T16:54:12.897Z,70.40
2019-03-16T16:56:41.412Z,70.76
2019-03-16T16:59:09.875Z,70.73
2019-03-16T17:01:38.324Z,71.07
2019-03-16T17:04:26.036Z,70.16
2019-03-16T17:07:13.740Z,70.07
2019-03-16T17:10:01.638Z,69.73
2019-03-16T17:12:30.168Z,69.50
2019-03-16T17:14:58.610Z,69.95
2019-03-16T17:17:35.252Z,69.01
2019-03-16T17:19:57.280Z,69.02
2019-03-16T17:25:53.224Z,68.75
2019-03-16T17:28:21.676Z,69.13
2019-03-16T17:30:50.192Z,68.83
2019-03-16T17:35:52.540Z,69.26
2019-03-16T17:38:20.988Z,68.41
2019-03-16T17:40:49.493Z,68.26
2019-03-16T17:43:17.941Z,68.05
2019-03-16T17:45:46.389Z,68.78
2019-03-16T17:50:48.949Z,69.49
2019-03-16T17:53:17.431Z,70.06
2019-03-16T17:58:34.988Z,70.37
2019-03-16T18:01:03.528Z,70.34
2019-03-16T18:03:31.997Z,70.66
2019-03-16T18:06:19.585Z,70.94
2019-03-16T18:08:48.033Z,70.86
2019-03-16T18:11:16.503Z,70.29
2019-03-16T18:13:45.008Z,70.73
2019-03-16T18:16:32.779Z,71.37
2019-03-16T18:19:01.297Z,71.66
2019-03-16T18:21:29.762Z,71.68
2019-03-16T18:24:17.577Z,71.81
2019-03-16T18:26:46.050Z,72.44
2019-03-16T18:29:14.495Z,71.26
2019-03-16T18:34:16.565Z,71.31
2019-03-16T18:36:45.025Z,71.13
2019-03-16T18:39:13.509Z,71.09
2019-03-16T18:41:41.959Z,71.07
2019-03-16T18:44:10.406Z,70.61
2019-03-16T18:46:38.885Z,70.50
2019-03-16T18:49:07.335Z,72.20
2019-03-16T18:51:35.795Z,71.38
2019-03-16T18:56:57.354Z,71.75
2019-03-16T18:59:25.912Z,72.17
2019-03-16T19:01:54.360Z,71.96
2019-03-16T19:04:22.815Z,72.44
2019-03-16T19:06:51.303Z,71.64
2019-03-16T19:09:19.745Z,72.42
2019-03-16T19:11:48.211Z,72.71
2019-03-16T19:14:16.699Z,73.44
2019-03-16T19:16:45.142Z,74.27
2019-03-16T19:19:13.590Z,74.58
2019-03-16T19:21:42.089Z,74.99
2019-03-16T19:24:10.542Z,75.68
2019-03-16T19:26:38.993Z,75.65
2019-03-16T19:29:26.830Z,76.34
2019-03-16T19:31:55.306Z,76.34
2019-03-16T19:34:43.024Z,76.67
2019-03-16T19:37:11.467Z,77.00
2019-03-16T19:39:39.952Z,77.39
2019-03-16T19:42:08.424Z,78.10
2019-03-16T19:44:36.869Z,77.75
2019-03-16T19:47:24.675Z,77.89
2019-03-16T19:49:53.153Z,78.11
2019-03-16T19:52:21.669Z,78.74
2019-03-16T19:58:03.188Z,78.70
2019-03-16T20:00:31.678Z,78.41
2019-03-16T20:03:00.202Z,78.06
2019-03-16T20:05:48.034Z,78.22
2019-03-16T20:08:16.487Z,77.43
2019-03-16T20:10:44.948Z,76.76
2019-03-16T20:13:13.429Z,76.57
2019-03-16T20:15:43.939Z,77.38
2019-03-16T20:18:31.482Z,77.37
2019-03-16T20:20:59.932Z,77.11
2019-03-16T20:23:28.392Z,77.87
2019-03-16T20:28:31.264Z,78.70
2019-03-16T20:30:59.713Z,78.72
2019-03-16T20:33:28.196Z,78.89
2019-03-16T20:35:56.641Z,79.07
2019-03-16T20:38:25.158Z,78.90
2019-03-16T20:40:53.643Z,78.98
2019-03-16T20:43:41.621Z,80.23
2019-03-16T20:46:11.648Z,80.68
2019-03-16T20:48:40.096Z,81.04
2019-03-16T20:51:08.551Z,81.57
2019-03-16T20:53:37.023Z,81.44
2019-03-16T20:56:24.814Z,81.76
2019-03-16T21:01:27.805Z,82.05
2019-03-16T21:03:57.872Z,81.97
2019-03-16T21:06:26.323Z,81.45
2019-03-16T21:09:03.080Z,81.20
2019-03-16T21:11:24.967Z,80.49
2019-03-16T21:13:53.412Z,80.58
2019-03-16T21:16:21.859Z,81.25
2019-03-16T21:21:24.547Z,81.47
2019-03-16T21:23:53.028Z,82.03
2019-03-16T21:26:21.508Z,82.19
2019-03-16T21:28:49.914Z,82.08
2019-03-16T21:31:37.584Z,82.09
2019-03-16T21:34:25.354Z,82.46
2019-03-16T21:36:53.825Z,82.19
2019-03-16T21:39:22.275Z,82.66
2019-03-16T21:41:50.721Z,82.29
2019-03-16T21:44:19.200Z,82.81
2019-03-16T21:46:47.648Z,82.81
2019-03-16T21:52:03.582Z,83.25
2019-03-16T21:54:32.027Z,84.20
2019-03-16T21:57:00.530Z,84.51
2019-03-16T21:59:29.100Z,85.17
2019-03-16T22:01:57.535Z,85.53
2019-03-16T22:04:25.981Z,85.02
2019-03-16T22:07:13.654Z,84.92
2019-03-16T22:09:42.095Z,85.32
2019-03-16T22:12:29.948Z,86.67
2019-03-16T22:14:58.392Z,86.32
2019-03-16T22:17:26.846Z,86.40
2019-03-16T22:19:55.320Z,88.37
2019-03-16T22:22:23.765Z,88.19
2019-03-16T22:25:11.665Z,88.04
2019-03-16T22:27:40.107Z,88.87
2019-03-16T22:30:48.497Z,88.82
2019-03-16T22:33:16.944Z,90.03
2019-03-16T22:35:45.382Z,89.62
2019-03-16T22:38:33.222Z,89.51
2019-03-16T22:41:01.663Z,89.75
2019-03-16T22:43:30.120Z,89.39
2019-03-16T22:45:58.623Z,89.94
2019-03-16T22:48:46.198Z,90.28
2019-03-16T22:53:48.466Z,92.16
2019-03-16T22:56:16.959Z,90.78
2019-03-16T22:58:45.478Z,91.13
2019-03-16T23:01:33.180Z,90.90
2019-03-16T23:04:20.820Z,91.81
2019-03-16T23:06:49.342Z,92.00
2019-03-16T23:09:36.991Z,93.30
2019-03-16T23:14:59.076Z,93.39
2019-03-16T23:20:01.473Z,92.69
2019-03-16T23:22:49.220Z,92.92
2019-03-16T23:25:17.684Z,92.80
2019-03-16T23:27:46.207Z,93.58
2019-03-16T23:30:33.938Z,94.11
2019-03-16T23:33:21.579Z,94.21
2019-03-16T23:35:50.079Z,93.87
2019-03-16T23:38:18.528Z,94.26
2019-03-16T23:40:47.058Z,93.68
2019-03-16T23:45:49.924Z,92.64
2019-03-16T23:48:18.429Z,92.53
2019-03-16T23:50:46.875Z,94.10
2019-03-16T23:53:15.330Z,92.82
2019-03-16T23:58:36.942Z,95.28
